createdAt,value
2018-09-10T06:39:58.027Z,17.18
2018-09-10T06:40:58.500Z,17.27
2018-09-10T06:41:58.975Z,17.19
2018-09-10T06:42:59.448Z,17.09
2018-09-10T06:43:59.924Z,16.99
2018-09-10T06:45:00.397Z,16.89
2018-09-10T06:46:00.868Z,16.77
2018-09-10T06:47:01.343Z,16.65
2018-09-10T06:48:01.815Z,16.53
2018-09-10T06:49:02.288Z,16.43
2018-09-10T06:50:02.762Z,16.32
2018-09-10T06:51:03.233Z,16.22
2018-09-10T06:52:03.707Z,16.13
2018-09-10T06:53:04.181Z,16.05
2018-09-10T06:54:04.656Z,15.97
2018-09-10T06:55:05.126Z,15.88
2018-09-10T06:56:05.595Z,15.81
2018-09-10T06:57:06.067Z,15.74
2018-09-10T06:58:06.540Z,15.66
2018-09-10T06:59:07.014Z,15.58
2018-09-10T07:00:07.485Z,15.50
2018-09-10T07:01:07.952Z,15.42
2018-09-10T07:02:08.424Z,15.34
2018-09-10T07:03:08.895Z,15.28
2018-09-10T07:04:09.368Z,15.24
2018-09-10T07:05:09.842Z,15.22
2018-09-10T07:06:10.308Z,15.22
2018-09-10T07:07:10.780Z,15.24
2018-09-10T07:08:11.248Z,15.29
2018-09-10T07:09:11.719Z,15.33
2018-09-10T07:10:12.192Z,15.41
2018-09-10T07:11:12.661Z,15.49
2018-09-10T07:12:13.134Z,15.57
2018-09-10T07:13:13.643Z,15.68
2018-09-10T07:14:14.073Z,15.80
2018-09-10T07:15:14.544Z,15.89
2018-09-10T07:16:15.015Z,16.02
2018-09-10T07:17:15.484Z,16.16
2018-09-10T07:18:16.008Z,16.32
2018-09-10T07:19:16.431Z,16.48
2018-09-10T07:21:17.369Z,16.79
2018-09-10T07:22:17.840Z,16.94
2018-09-10T07:23:18.312Z,17.09
2018-09-10T07:24:18.782Z,17.23
2018-09-10T07:25:19.255Z,17.37
2018-09-10T07:26:19.727Z,17.51
2018-09-10T07:27:20.200Z,17.66
2018-09-10T07:28:20.672Z,17.80
2018-09-10T07:29:21.144Z,17.94
2018-09-10T07:30:21.620Z,18.09
2018-09-10T07:31:22.092Z,18.21
2018-09-10T07:32:22.564Z,18.33
2018-09-10T07:33:23.036Z,18.46
2018-09-10T07:34:23.514Z,18.57
2018-09-10T07:35:23.983Z,18.67
2018-09-10T07:36:24.459Z,18.76
2018-09-10T07:37:24.984Z,18.83
2018-09-10T07:38:25.406Z,18.89
2018-09-10T07:39:25.881Z,18.91
2018-09-10T07:40:26.355Z,18.91
2018-09-10T07:41:26.829Z,18.90
2018-09-10T07:42:27.305Z,18.86
2018-09-10T07:43:27.782Z,18.82
2018-09-10T07:44:28.257Z,18.78
2018-09-10T07:45:28.732Z,18.75
2018-09-10T07:46:29.205Z,18.72
2018-09-10T07:47:29.681Z,18.68
2018-09-10T07:48:30.155Z,18.65
2018-09-10T07:49:30.630Z,18.61
2018-09-10T07:50:31.106Z,18.56
2018-09-10T07:51:31.584Z,18.52
2018-09-10T07:52:32.055Z,18.48
2018-09-10T07:53:32.531Z,18.43
2018-09-10T07:54:33.064Z,18.39
2018-09-10T07:55:33.483Z,18.37
2018-09-10T07:56:33.956Z,18.34
2018-09-10T07:57:34.433Z,18.32
2018-09-10T07:58:34.915Z,18.32
2018-09-10T07:59:35.384Z,18.33
2018-09-10T08:00:35.857Z,18.33
2018-09-10T08:01:36.334Z,18.32
2018-09-10T08:02:36.810Z,18.33
2018-09-10T08:03:37.287Z,18.33
2018-09-10T08:04:37.762Z,18.35
2018-09-10T08:05:38.238Z,18.39
2018-09-10T08:06:38.713Z,18.45
2018-09-10T08:07:39.192Z,18.56
2018-09-10T08:08:39.667Z,18.71
2018-09-10T08:09:40.223Z,18.91
2018-09-10T08:10:40.623Z,19.12
2018-09-10T08:11:41.100Z,19.37
2018-09-10T08:12:41.603Z,19.62
2018-09-10T08:13:42.056Z,19.87
2018-09-10T08:14:42.535Z,20.11
2018-09-10T08:15:43.029Z,20.37
2018-09-10T08:16:43.494Z,20.64
2018-09-10T08:17:43.971Z,20.89
2018-09-10T08:18:44.462Z,21.14
2018-09-10T08:19:44.932Z,21.37
2018-09-10T08:20:45.410Z,21.58
2018-09-10T08:21:45.891Z,21.77
2018-09-10T08:22:46.373Z,21.95
2018-09-10T08:23:46.858Z,22.10
2018-09-10T08:24:47.332Z,22.24
2018-09-10T08:25:47.813Z,22.35
2018-09-10T08:26:48.294Z,22.45
2018-09-10T08:27:48.777Z,22.52
2018-09-10T08:28:49.255Z,22.58
2018-09-10T08:29:49.734Z,22.60
2018-09-10T08:30:50.214Z,22.61
2018-09-10T08:31:50.698Z,22.61
2018-09-10T08:32:51.172Z,22.61
2018-09-10T08:33:51.701Z,22.60
2018-09-10T08:34:52.137Z,22.60
2018-09-10T08:35:52.609Z,22.58
2018-09-10T08:36:53.088Z,22.56
2018-09-10T08:37:53.564Z,22.53
2018-09-10T08:38:54.042Z,22.48
2018-09-10T08:39:54.519Z,22.43
2018-09-10T08:40:54.996Z,22.34
2018-09-10T08:41:55.474Z,22.23
2018-09-10T08:42:56.044Z,22.11
2018-09-10T08:43:56.428Z,21.89
2018-09-10T08:44:56.907Z,21.62
2018-09-10T08:45:57.380Z,21.33
2018-09-10T08:46:57.854Z,21.03
2018-09-10T08:47:58.330Z,20.74
2018-09-10T08:48:58.857Z,20.46
2018-09-10T08:49:59.281Z,20.20
2018-09-10T08:50:59.758Z,19.93
2018-09-10T08:52:00.231Z,19.70
2018-09-10T08:53:00.706Z,19.48
2018-09-10T08:54:01.272Z,19.28
2018-09-10T08:55:01.880Z,19.09
2018-09-10T08:56:02.294Z,18.92
2018-09-10T08:57:02.602Z,18.76
2018-09-10T08:58:03.079Z,18.63
2018-09-10T08:59:03.551Z,18.49
2018-09-10T09:00:04.065Z,18.37
2018-09-10T09:01:04.500Z,18.25
2018-09-10T09:02:04.973Z,18.14
2018-09-10T09:03:05.442Z,18.06
2018-09-10T09:04:05.917Z,17.97
2018-09-10T09:05:06.389Z,17.88
2018-09-10T09:06:06.930Z,17.81
2018-09-10T09:07:07.335Z,17.75
2018-09-10T09:08:07.862Z,17.69
2018-09-10T09:09:08.279Z,17.64
2018-09-10T09:10:08.751Z,17.60
2018-09-10T09:11:09.222Z,17.57
2018-09-10T09:12:09.694Z,17.55
2018-09-10T09:13:10.169Z,17.52
2018-09-10T09:14:10.638Z,17.49
2018-09-10T09:15:11.110Z,17.46
2018-09-10T09:16:11.584Z,17.44
2018-09-10T09:17:12.053Z,17.44
2018-09-10T09:18:12.527Z,17.44
2018-09-10T09:19:12.997Z,17.46
2018-09-10T09:20:13.469Z,17.48
2018-09-10T09:21:13.939Z,17.53
2018-09-10T09:22:14.409Z,17.59
2018-09-10T09:23:14.931Z,17.67
2018-09-10T09:24:15.352Z,17.78
2018-09-10T09:25:15.825Z,17.92
2018-09-10T09:26:16.295Z,18.07
2018-09-10T09:27:16.767Z,18.24
2018-09-10T09:28:17.237Z,18.42
2018-09-10T09:29:17.709Z,18.63
2018-09-10T09:30:18.260Z,18.83
2018-09-10T09:31:18.652Z,19.03
2018-09-10T09:32:19.124Z,19.21
2018-09-10T09:33:19.593Z,19.41
2018-09-10T09:34:20.067Z,19.63
2018-09-10T09:35:20.538Z,19.84
2018-09-10T09:36:21.016Z,20.04
2018-09-10T09:37:21.483Z,20.26
2018-09-10T09:38:21.955Z,20.41
2018-09-10T09:39:22.429Z,20.59
2018-09-10T09:40:22.904Z,20.78
2018-09-10T09:41:23.374Z,20.94
2018-09-10T09:42:23.851Z,21.08
2018-09-10T09:43:24.354Z,21.19
2018-09-10T09:44:24.798Z,21.26
2018-09-10T09:45:25.274Z,21.32
2018-09-10T09:46:25.744Z,21.36
2018-09-10T09:47:26.222Z,21.38
2018-09-10T09:48:26.694Z,21.39
2018-09-10T09:49:27.170Z,21.38
2018-09-10T09:50:27.645Z,21.36
2018-09-10T09:51:28.119Z,21.34
2018-09-10T09:52:28.595Z,21.31
2018-09-10T09:53:29.069Z,21.27
2018-09-10T09:54:29.545Z,21.24
2018-09-10T09:55:30.020Z,21.19
2018-09-10T09:56:30.511Z,21.14
2018-09-10T09:57:30.970Z,21.09
2018-09-10T09:58:31.447Z,21.02
2018-09-10T09:59:31.921Z,20.96
2018-09-10T10:00:32.401Z,20.89
2018-09-10T10:01:32.872Z,20.81
2018-09-10T10:02:33.347Z,20.73
2018-09-10T10:03:33.820Z,20.67
2018-09-10T10:04:34.352Z,20.60
2018-09-10T10:05:34.771Z,20.53
2018-09-10T10:06:35.249Z,20.48
2018-09-10T10:07:35.720Z,20.41
2018-09-10T10:08:36.201Z,20.36
2018-09-10T10:09:36.670Z,20.29
2018-09-10T10:10:37.144Z,20.24
2018-09-10T10:11:37.640Z,20.19
2018-09-10T10:12:38.093Z,20.13
2018-09-10T10:13:38.569Z,20.08
2018-09-10T10:14:39.041Z,20.03
2018-09-10T10:15:39.515Z,19.98
2018-09-10T10:16:39.995Z,19.93
2018-09-10T10:17:40.462Z,19.89
2018-09-10T10:18:40.938Z,19.83
2018-09-10T10:19:41.461Z,19.77
2018-09-10T10:20:41.885Z,19.70
2018-09-10T10:21:42.358Z,19.64
2018-09-10T10:22:42.838Z,19.59
2018-09-10T10:23:43.306Z,19.53
2018-09-10T10:24:43.779Z,19.48
2018-09-10T10:25:44.251Z,19.43
2018-09-10T10:26:44.725Z,19.39
2018-09-10T10:27:45.198Z,19.36
2018-09-10T10:28:45.672Z,19.31
2018-09-10T10:29:46.146Z,19.26
2018-09-10T10:30:46.616Z,19.23
2018-09-10T10:31:47.090Z,19.19
2018-09-10T10:32:47.561Z,19.16
2018-09-10T10:33:48.037Z,19.13
2018-09-10T10:34:48.507Z,19.09
2018-09-10T10:35:48.981Z,19.06
2018-09-10T10:36:49.454Z,19.03
2018-09-10T10:37:49.925Z,19.00
2018-09-10T10:38:50.400Z,18.98
2018-09-10T10:39:50.870Z,18.95
2018-09-10T10:40:51.344Z,18.93
2018-09-10T10:41:51.815Z,18.89
2018-09-10T10:42:52.288Z,18.86
2018-09-10T10:43:52.762Z,18.84
2018-09-10T10:44:53.235Z,18.81
2018-09-10T10:45:53.707Z,18.78
2018-09-10T10:46:54.177Z,18.74
2018-09-10T10:47:54.650Z,18.72
2018-09-10T10:48:55.122Z,18.70
2018-09-10T10:49:55.594Z,18.68
2018-09-10T10:50:56.064Z,18.66
2018-09-10T10:51:56.539Z,18.63
2018-09-10T10:52:57.008Z,18.61
2018-09-10T10:53:57.480Z,18.59
2018-09-10T10:54:58.002Z,18.58
2018-09-10T10:55:58.424Z,18.57
2018-09-10T10:56:58.897Z,18.57
2018-09-10T10:57:59.367Z,18.56
2018-09-10T10:58:59.839Z,18.56
2018-09-10T11:00:00.311Z,18.56
2018-09-10T11:01:00.786Z,18.57
2018-09-10T11:02:01.255Z,18.57
2018-09-10T11:03:01.726Z,18.57
2018-09-10T11:04:02.204Z,18.57
2018-09-10T11:05:02.669Z,18.57
2018-09-10T11:06:03.143Z,18.56
2018-09-10T11:07:03.611Z,18.55
2018-09-10T11:08:04.086Z,18.54
2018-09-10T11:09:04.556Z,18.54
2018-09-10T11:10:05.026Z,18.53
2018-09-10T11:11:05.498Z,18.54
2018-09-10T11:12:05.971Z,18.52
2018-09-10T11:13:06.441Z,18.52
2018-09-10T11:14:06.910Z,18.51
2018-09-10T11:15:07.381Z,18.50
2018-09-10T11:16:07.852Z,18.49
2018-09-10T11:17:08.325Z,18.49
2018-09-10T11:18:08.795Z,18.48
2018-09-10T11:19:09.269Z,18.47
2018-09-10T11:20:09.737Z,18.46
2018-09-10T11:21:10.215Z,18.45
2018-09-10T11:22:10.731Z,18.44
2018-09-10T11:23:11.151Z,18.44
2018-09-10T11:24:11.621Z,18.44
2018-09-10T11:25:12.097Z,18.43
2018-09-10T11:26:12.564Z,18.42
2018-09-10T11:27:13.035Z,18.42
2018-09-10T11:28:13.507Z,18.42
2018-09-10T11:29:13.979Z,18.43
2018-09-10T11:30:14.448Z,18.43
2018-09-10T11:31:14.920Z,18.44
2018-09-10T11:32:15.390Z,18.46
2018-09-10T11:33:15.861Z,18.46
2018-09-10T11:34:16.333Z,18.47
2018-09-10T11:35:16.804Z,18.47
2018-09-10T11:36:17.275Z,18.48
2018-09-10T11:37:17.745Z,18.50
2018-09-10T11:38:18.218Z,18.51
2018-09-10T11:39:18.686Z,18.54
2018-09-10T11:40:19.160Z,18.58
2018-09-10T11:41:19.631Z,18.62
2018-09-10T11:42:20.099Z,18.66
2018-09-10T11:43:20.570Z,18.72
2018-09-10T11:44:21.042Z,18.80
2018-09-10T11:45:21.515Z,18.92
2018-09-10T11:46:21.985Z,19.04
2018-09-10T11:47:22.457Z,19.17
2018-09-10T11:48:22.927Z,19.32
2018-09-10T11:49:23.399Z,19.47
2018-09-10T11:50:23.869Z,19.63
2018-09-10T11:51:24.342Z,19.80
2018-09-10T11:52:24.818Z,19.97
2018-09-10T11:53:25.285Z,20.15
2018-09-10T11:54:25.757Z,20.32
2018-09-10T11:55:26.285Z,20.51
2018-09-10T11:56:26.703Z,20.69
2018-09-10T11:57:27.176Z,20.86
2018-09-10T11:58:27.651Z,21.00
2018-09-10T11:59:28.125Z,21.16
2018-09-10T12:00:28.599Z,21.27
2018-09-10T12:01:29.072Z,21.37
2018-09-10T12:02:29.546Z,21.46
2018-09-10T12:03:30.022Z,21.51
2018-09-10T12:04:30.496Z,21.56
2018-09-10T12:05:30.974Z,21.58
2018-09-10T12:06:31.445Z,21.60
2018-09-10T12:07:31.921Z,21.62
2018-09-10T12:08:32.396Z,21.63
2018-09-10T12:09:32.870Z,21.63
2018-09-10T12:10:33.347Z,21.62
2018-09-10T12:11:33.823Z,21.59
2018-09-10T12:12:34.299Z,21.57
2018-09-10T12:13:34.824Z,21.54
2018-09-10T12:14:35.247Z,21.52
2018-09-10T12:15:35.925Z,21.50
2018-09-10T12:16:36.198Z,21.46
2018-09-10T12:17:36.675Z,21.42
2018-09-10T12:18:37.154Z,21.38
2018-09-10T12:19:37.628Z,21.34
2018-09-10T12:20:38.100Z,21.30
2018-09-10T12:21:38.667Z,21.26
2018-09-10T12:22:39.053Z,21.22
2018-09-10T12:23:39.527Z,21.18
2018-09-10T12:24:40.005Z,21.14
2018-09-10T12:25:40.480Z,21.12
2018-09-10T12:26:41.005Z,21.08
2018-09-10T12:27:41.429Z,21.05
2018-09-10T12:28:41.906Z,21.03
2018-09-10T12:29:42.381Z,20.99
2018-09-10T12:30:42.857Z,20.97
2018-09-10T12:31:43.333Z,20.94
2018-09-10T12:32:43.809Z,20.92
2018-09-10T12:33:44.280Z,20.89
2018-09-10T12:34:44.757Z,20.86
2018-09-10T12:35:45.232Z,20.83
2018-09-10T12:36:45.709Z,20.80
2018-09-10T12:37:46.183Z,20.78
2018-09-10T12:38:46.657Z,20.75
2018-09-10T12:39:47.164Z,20.72
2018-09-10T12:40:47.606Z,20.70
2018-09-10T12:41:48.081Z,20.68
2018-09-10T12:42:48.555Z,20.66
2018-09-10T12:43:49.033Z,20.65
2018-09-10T12:44:49.505Z,20.63
2018-09-10T12:45:49.979Z,20.62
2018-09-10T12:46:50.452Z,20.61
2018-09-10T12:47:50.930Z,20.59
2018-09-10T12:48:51.403Z,20.57
2018-09-10T12:49:51.877Z,20.55
2018-09-10T12:50:52.349Z,20.54
2018-09-10T12:51:52.826Z,20.53
2018-09-10T12:52:53.302Z,20.53
2018-09-10T12:53:53.774Z,20.52
2018-09-10T12:54:54.247Z,20.51
2018-09-10T12:55:54.722Z,20.51
2018-09-10T12:56:55.195Z,20.50
2018-09-10T12:57:55.671Z,20.49
2018-09-10T12:58:56.212Z,20.48
2018-09-10T12:59:56.620Z,20.47
2018-09-10T13:00:57.094Z,20.46
2018-09-10T13:01:57.566Z,20.45
2018-09-10T13:02:58.039Z,20.43
2018-09-10T13:03:58.514Z,20.42
2018-09-10T13:04:58.988Z,20.40
2018-09-10T13:05:59.463Z,20.40
2018-09-10T13:06:59.937Z,20.40
2018-09-10T13:08:00.407Z,20.39
2018-09-10T13:09:00.882Z,20.39
2018-09-10T13:10:01.357Z,20.40
2018-09-10T13:11:01.831Z,20.40
2018-09-10T13:12:02.304Z,20.40
2018-09-10T13:13:02.777Z,20.40
2018-09-10T13:14:03.252Z,20.39
2018-09-10T13:15:03.724Z,20.39
2018-09-10T13:16:04.225Z,20.38
2018-09-10T13:17:04.673Z,20.37
2018-09-10T13:18:05.147Z,20.37
2018-09-10T13:19:05.619Z,20.36
2018-09-10T13:20:06.095Z,20.37
2018-09-10T13:21:06.566Z,20.37
2018-09-10T13:22:07.043Z,20.38
2018-09-10T13:23:07.519Z,20.38
2018-09-10T13:24:07.986Z,20.37
2018-09-10T13:25:08.462Z,20.37
2018-09-10T13:26:08.937Z,20.37
2018-09-10T13:27:09.408Z,20.37
2018-09-10T13:28:09.882Z,20.37
2018-09-10T13:29:10.354Z,20.37
2018-09-10T13:30:10.829Z,20.37
2018-09-10T13:31:11.302Z,20.36
2018-09-10T13:32:11.779Z,20.35
2018-09-10T13:33:12.248Z,20.35
2018-09-10T13:34:12.723Z,20.34
2018-09-10T13:35:13.194Z,20.34
2018-09-10T13:36:13.669Z,20.34
2018-09-10T13:37:14.143Z,20.34
2018-09-10T13:38:14.615Z,20.33
2018-09-10T13:39:15.088Z,20.33
2018-09-10T13:40:15.562Z,20.34
2018-09-10T13:41:16.037Z,20.34
2018-09-10T13:42:16.510Z,20.35
2018-09-10T13:43:17.023Z,20.35
2018-09-10T13:44:17.456Z,20.36
2018-09-10T13:45:17.931Z,20.36
2018-09-10T13:46:18.403Z,20.36
2018-09-10T13:47:18.874Z,20.37
2018-09-10T13:48:19.350Z,20.37
2018-09-10T13:49:19.821Z,20.37
2018-09-10T13:50:20.298Z,20.38
2018-09-10T13:51:20.768Z,20.39
2018-09-10T13:52:21.243Z,20.39
2018-09-10T13:53:21.717Z,20.40
2018-09-10T13:54:22.189Z,20.40
2018-09-10T13:55:22.661Z,20.42
2018-09-10T13:56:23.136Z,20.44
2018-09-10T13:57:23.616Z,20.46
2018-09-10T13:58:24.083Z,20.48
2018-09-10T13:59:24.556Z,20.49
2018-09-10T14:00:25.027Z,20.50
2018-09-10T14:01:25.512Z,20.50
2018-09-10T14:02:25.975Z,20.49
2018-09-10T14:03:26.448Z,20.48
2018-09-10T14:04:26.925Z,20.48
2018-09-10T14:05:27.397Z,20.48
2018-09-10T14:06:27.874Z,20.48
2018-09-10T14:07:28.344Z,20.50
2018-09-10T14:08:28.816Z,20.51
2018-09-10T14:09:29.289Z,20.51
2018-09-10T14:10:29.808Z,20.52
2018-09-10T14:11:30.235Z,20.53
2018-09-10T14:12:30.707Z,20.52
2018-09-10T14:13:31.188Z,20.52
2018-09-10T14:14:31.710Z,20.52
2018-09-10T14:15:32.131Z,20.52
2018-09-10T14:16:32.601Z,20.52
2018-09-10T14:17:33.078Z,20.53
2018-09-10T14:18:33.549Z,20.53
2018-09-10T14:19:34.021Z,20.53
2018-09-10T14:20:34.496Z,20.54
2018-09-10T14:21:35.019Z,20.54
2018-09-10T14:22:35.444Z,20.55
2018-09-10T14:23:35.917Z,20.56
2018-09-10T14:24:36.390Z,20.58
2018-09-10T14:25:36.863Z,20.59
2018-09-10T14:26:37.340Z,20.60
2018-09-10T14:27:37.809Z,20.60
2018-09-10T14:28:38.282Z,20.60
2018-09-10T14:29:38.759Z,20.58
2018-09-10T14:30:39.231Z,20.58
2018-09-10T14:31:39.704Z,20.58
2018-09-10T14:32:40.175Z,20.59
2018-09-10T14:33:40.649Z,20.59
2018-09-10T14:34:41.219Z,20.59
2018-09-10T14:35:41.596Z,20.60
2018-09-10T14:36:42.089Z,20.60
2018-09-10T14:37:42.542Z,20.60
2018-09-10T14:38:43.019Z,20.62
2018-09-10T14:39:43.491Z,20.62
2018-09-10T14:40:44.176Z,20.62
2018-09-10T14:41:44.438Z,20.62
2018-09-10T14:42:44.917Z,20.62
2018-09-10T14:43:45.384Z,20.62
2018-09-10T14:44:45.858Z,20.61
2018-09-10T14:45:46.333Z,20.61
2018-09-10T14:46:46.807Z,20.62
2018-09-10T14:47:47.280Z,20.61
2018-09-10T14:48:47.752Z,20.61
2018-09-10T14:49:48.225Z,20.60
2018-09-10T14:50:48.702Z,20.60
2018-09-10T14:51:49.173Z,20.61
2018-09-10T14:52:49.645Z,20.61
2018-09-10T14:53:50.120Z,20.63
2018-09-10T14:54:50.595Z,20.66
2018-09-10T14:55:51.066Z,20.67
2018-09-10T14:56:51.540Z,20.68
2018-09-10T14:57:52.015Z,20.70
2018-09-10T14:58:52.489Z,20.71
2018-09-10T14:59:52.961Z,20.72
2018-09-10T15:00:53.438Z,20.73
2018-09-10T15:01:53.912Z,20.75
2018-09-10T15:02:54.383Z,20.78
2018-09-10T15:03:54.855Z,20.78
2018-09-10T15:04:55.335Z,20.80
2018-09-10T15:05:55.843Z,20.81
2018-09-10T15:06:56.277Z,20.84
2018-09-10T15:07:56.752Z,20.85
2018-09-10T15:08:57.223Z,20.85
2018-09-10T15:09:57.697Z,20.86
2018-09-10T15:10:58.171Z,20.87
2018-09-10T15:11:58.666Z,20.88
2018-09-10T15:12:59.122Z,20.88
2018-09-10T15:13:59.591Z,20.89
2018-09-10T15:15:00.068Z,20.90
2018-09-10T15:16:00.537Z,20.91
2018-09-10T15:17:01.012Z,20.91
2018-09-10T15:18:01.488Z,20.91
2018-09-10T15:19:02.117Z,20.90
2018-09-10T15:20:02.438Z,20.90
2018-09-10T15:21:02.906Z,20.90
2018-09-10T15:22:03.382Z,20.89
2018-09-10T15:23:03.855Z,20.89
2018-09-10T15:24:04.327Z,20.88
2018-09-10T15:25:04.802Z,20.87
2018-09-10T15:26:05.329Z,20.87
2018-09-10T15:27:05.754Z,20.88
2018-09-10T15:28:06.224Z,20.88
2018-09-10T15:29:06.699Z,20.88
2018-09-10T15:30:07.173Z,20.89
2018-09-10T15:31:07.646Z,20.88
2018-09-10T15:32:08.121Z,20.89
2018-09-10T15:33:08.592Z,20.90
2018-09-10T15:34:09.069Z,20.90
2018-09-10T15:35:09.540Z,20.92
2018-09-10T15:36:10.017Z,20.93
2018-09-10T15:37:10.488Z,20.94
2018-09-10T15:38:10.962Z,20.95
2018-09-10T15:39:11.437Z,20.96
2018-09-10T15:40:11.909Z,20.97
2018-09-10T15:41:12.389Z,20.98
2018-09-10T15:42:12.859Z,21.00
2018-09-10T15:43:13.334Z,21.00
2018-09-10T15:44:13.805Z,21.00
2018-09-10T15:45:14.339Z,20.99
2018-09-10T15:46:14.752Z,20.99
2018-09-10T15:47:15.226Z,20.98
2018-09-10T15:48:15.701Z,20.97
2018-09-10T15:49:16.176Z,20.95
2018-09-10T15:50:16.648Z,20.94
2018-09-10T15:51:17.163Z,20.93
2018-09-10T15:52:17.596Z,20.91
2018-09-10T15:53:18.080Z,20.89
2018-09-10T15:54:18.544Z,20.88
2018-09-10T15:55:19.021Z,20.87
2018-09-10T15:56:19.489Z,20.85
2018-09-10T15:57:20.023Z,20.83
2018-09-10T15:58:20.439Z,20.81
2018-09-10T15:59:20.912Z,20.79
2018-09-10T16:00:21.386Z,20.78
2018-09-10T16:01:21.861Z,20.77
2018-09-10T16:02:22.334Z,20.76
2018-09-10T16:03:22.807Z,20.75
2018-09-10T16:04:23.283Z,20.73
2018-09-10T16:05:23.753Z,20.73
2018-09-10T16:06:24.228Z,20.72
2018-09-10T16:07:24.707Z,20.73
2018-09-10T16:08:25.179Z,20.73
2018-09-10T16:09:25.649Z,20.73
2018-09-10T16:10:26.123Z,20.72
2018-09-10T16:11:26.597Z,20.72
2018-09-10T16:12:27.070Z,20.71
2018-09-10T16:13:27.545Z,20.71
2018-09-10T16:14:28.017Z,20.70
2018-09-10T16:15:28.493Z,20.71
2018-09-10T16:16:28.965Z,20.71
2018-09-10T16:17:29.441Z,20.70
2018-09-10T16:18:29.914Z,20.70
2018-09-10T16:19:30.387Z,20.70
2018-09-10T16:20:30.867Z,20.70
2018-09-10T16:21:31.334Z,20.71
2018-09-10T16:22:31.808Z,20.73
2018-09-10T16:23:32.283Z,20.73
2018-09-10T16:24:32.756Z,20.74
2018-09-10T16:25:33.229Z,20.74
2018-09-10T16:26:33.704Z,20.75
2018-09-10T16:27:34.245Z,20.75
2018-09-10T16:28:34.651Z,20.76
2018-09-10T16:29:35.125Z,20.77
2018-09-10T16:30:35.599Z,20.77
2018-09-10T16:31:36.073Z,20.79
2018-09-10T16:32:36.548Z,20.79
2018-09-10T16:33:37.027Z,20.79
2018-09-10T16:34:37.493Z,20.80
2018-09-10T16:35:37.968Z,20.79
2018-09-10T16:36:38.440Z,20.79
2018-09-10T16:37:38.913Z,20.79
2018-09-10T16:38:39.387Z,20.79
2018-09-10T16:39:39.862Z,20.77
2018-09-10T16:40:40.335Z,20.76
2018-09-10T16:41:40.835Z,20.75
2018-09-10T16:42:41.283Z,20.75
2018-09-10T16:43:41.762Z,20.74
2018-09-10T16:44:42.228Z,20.74
2018-09-10T16:45:42.702Z,20.73
2018-09-10T16:46:43.177Z,20.74
2018-09-10T16:47:43.652Z,20.74
2018-09-10T16:48:44.183Z,20.72
2018-09-10T16:49:44.597Z,20.73
2018-09-10T16:50:45.070Z,20.72
2018-09-10T16:51:45.543Z,20.71
2018-09-10T16:52:46.018Z,20.69
2018-09-10T16:53:46.490Z,20.68
2018-09-10T16:54:47.061Z,20.67
2018-09-10T16:55:47.438Z,20.66
2018-09-10T16:56:47.915Z,20.65
2018-09-10T16:57:48.386Z,20.63
2018-09-10T16:58:48.859Z,20.62
2018-09-10T16:59:49.335Z,20.62
2018-09-10T17:00:49.876Z,20.61
2018-09-10T17:01:50.279Z,20.60
2018-09-10T17:02:50.754Z,20.59
2018-09-10T17:03:51.230Z,20.57
2018-09-10T17:04:51.700Z,20.55
2018-09-10T17:05:52.174Z,20.51
2018-09-10T17:06:52.647Z,20.47
2018-09-10T17:07:53.124Z,20.43
2018-09-10T17:08:53.593Z,20.39
2018-09-10T17:09:54.068Z,20.36
2018-09-10T17:10:54.542Z,20.34
2018-09-10T17:11:55.015Z,20.32
2018-09-10T17:12:55.487Z,20.29
2018-09-10T17:13:55.963Z,20.27
2018-09-10T17:14:56.435Z,20.26
2018-09-10T17:15:56.910Z,20.24
2018-09-10T17:16:57.385Z,20.23
2018-09-10T17:17:57.854Z,20.21
2018-09-10T17:18:58.328Z,20.20
2018-09-10T17:19:58.801Z,20.17
2018-09-10T17:20:59.274Z,20.16
2018-09-10T17:21:59.748Z,20.15
2018-09-10T17:23:00.219Z,20.13
2018-09-10T17:24:00.692Z,20.11
2018-09-10T17:25:01.166Z,20.10
2018-09-10T17:26:01.638Z,20.09
2018-09-10T17:27:02.113Z,20.07
2018-09-10T17:28:02.585Z,20.03
2018-09-10T17:29:03.058Z,19.99
2018-09-10T17:30:03.531Z,19.96
2018-09-10T17:31:04.006Z,19.94
2018-09-10T17:32:04.477Z,19.91
2018-09-10T17:33:04.951Z,19.89
2018-09-10T17:34:05.424Z,19.85
2018-09-10T17:35:05.897Z,19.82
2018-09-10T17:36:06.371Z,19.77
2018-09-10T17:37:06.844Z,19.73
2018-09-10T17:38:07.315Z,19.68
2018-09-10T17:39:07.789Z,19.62
2018-09-10T17:40:08.263Z,19.56
2018-09-10T17:41:08.734Z,19.50
2018-09-10T17:42:09.205Z,19.42
2018-09-10T17:43:09.679Z,19.36
2018-09-10T17:44:10.151Z,19.31
2018-09-10T17:45:10.623Z,19.24
2018-09-10T17:46:11.096Z,19.19
2018-09-10T17:47:11.700Z,19.14
2018-09-10T17:48:12.042Z,19.11
2018-09-10T17:49:12.515Z,19.10
2018-09-10T17:50:12.985Z,19.09
2018-09-10T17:51:13.459Z,19.08
2018-09-10T17:52:13.931Z,19.06
2018-09-10T17:53:14.447Z,19.02
2018-09-10T17:54:14.876Z,18.99
2018-09-10T17:55:15.348Z,18.95
2018-09-10T17:56:15.821Z,18.92
2018-09-10T17:57:16.294Z,18.89
2018-09-10T17:58:16.768Z,18.85
2018-09-10T17:59:17.237Z,18.83
2018-09-10T18:00:17.715Z,18.80
2018-09-10T18:01:18.183Z,18.76
2018-09-10T18:02:18.654Z,18.73
2018-09-10T18:03:19.127Z,18.71
2018-09-10T18:04:19.602Z,18.69
2018-09-10T18:05:20.069Z,18.66
2018-09-10T18:06:20.542Z,18.65
2018-09-10T18:07:21.014Z,18.63
2018-09-10T18:08:21.487Z,18.61
2018-09-10T18:09:21.958Z,18.59
2018-09-10T18:10:22.429Z,18.57
2018-09-10T18:11:22.900Z,18.55
2018-09-10T18:12:23.374Z,18.53
2018-09-10T18:13:23.869Z,18.51
2018-09-10T18:14:24.318Z,18.49
2018-09-10T18:15:24.793Z,18.47
2018-09-10T18:16:25.263Z,18.45
2018-09-10T18:17:25.733Z,18.44
2018-09-10T18:18:26.207Z,18.41
2018-09-10T18:19:26.677Z,18.40
2018-09-10T18:20:27.163Z,18.40
2018-09-10T18:21:27.619Z,18.37
2018-09-10T18:22:28.091Z,18.37
2018-09-10T18:23:28.564Z,18.35
2018-09-10T18:24:29.034Z,18.33
2018-09-10T18:25:29.513Z,18.32
2018-09-10T18:26:29.975Z,18.31
2018-09-10T18:27:30.449Z,18.29
2018-09-10T18:28:30.921Z,18.26
2018-09-10T18:29:31.390Z,18.23
2018-09-10T18:30:31.862Z,18.21
2018-09-10T18:31:32.333Z,18.18
2018-09-10T18:32:32.805Z,18.15
2018-09-10T18:33:33.276Z,18.14
2018-09-10T18:34:33.750Z,18.11
2018-09-10T18:35:34.231Z,18.09
2018-09-10T18:36:34.688Z,18.08
2018-09-10T18:37:35.162Z,18.06
2018-09-10T18:38:35.631Z,18.05
2018-09-10T18:39:36.102Z,18.03
2018-09-10T18:40:36.574Z,18.02
2018-09-10T18:41:37.043Z,17.99
2018-09-10T18:42:37.514Z,17.98
2018-09-10T18:43:37.987Z,17.95
2018-09-10T18:44:38.457Z,17.93
2018-09-10T18:45:38.928Z,17.90
2018-09-10T18:46:39.399Z,17.88
2018-09-10T18:47:39.871Z,17.85
2018-09-10T18:48:40.355Z,17.83
2018-09-10T18:49:40.815Z,17.81
2018-09-10T18:50:41.284Z,17.79
2018-09-10T18:51:41.752Z,17.77
2018-09-10T18:52:42.222Z,17.74
2018-09-10T18:53:42.693Z,17.71
2018-09-10T18:54:43.163Z,17.69
2018-09-10T18:55:43.634Z,17.67
2018-09-10T18:56:44.106Z,17.67
2018-09-10T18:57:44.575Z,17.67
2018-09-10T18:58:45.045Z,17.68
2018-09-10T18:59:45.521Z,17.70
2018-09-10T19:00:46.065Z,17.75
2018-09-10T19:01:46.457Z,17.80
2018-09-10T19:02:46.931Z,17.88
2018-09-10T19:03:47.400Z,17.97
2018-09-10T19:04:47.869Z,18.09
2018-09-10T19:05:48.343Z,18.20
2018-09-10T19:06:48.811Z,18.31
2018-09-10T19:07:49.281Z,18.42
2018-09-10T19:08:49.755Z,18.55
2018-09-10T19:09:50.253Z,18.69
2018-09-10T19:10:50.696Z,18.84
2018-09-10T19:11:51.167Z,18.99
2018-09-10T19:12:51.640Z,19.17
2018-09-10T19:13:52.111Z,19.33
2018-09-10T19:14:52.587Z,19.48
2018-09-10T19:15:53.058Z,19.64
2018-09-10T19:16:53.529Z,19.78
2018-09-10T19:17:54.024Z,19.93
2018-09-10T19:18:54.474Z,20.05
2018-09-10T19:19:54.948Z,20.17
2018-09-10T19:20:55.421Z,20.26
2018-09-10T19:21:55.894Z,20.33
2018-09-10T19:22:56.369Z,20.36
2018-09-10T19:23:56.845Z,20.39
2018-09-10T19:24:57.316Z,20.41
2018-09-10T19:25:57.791Z,20.41
2018-09-10T19:26:58.264Z,20.39
2018-09-10T19:27:58.739Z,20.34
2018-09-10T19:28:59.214Z,20.30
2018-09-10T19:29:59.690Z,20.26
2018-09-10T19:31:00.163Z,20.20
2018-09-10T19:32:00.641Z,20.13
2018-09-10T19:33:01.114Z,20.06
2018-09-10T19:34:01.593Z,19.99
2018-09-10T19:35:02.063Z,19.93
2018-09-10T19:36:02.538Z,19.86
2018-09-10T19:37:03.012Z,19.78
2018-09-10T19:38:03.490Z,19.70
2018-09-10T19:39:03.962Z,19.60